sensor_id;sensor_type;location;lat;lon;timestamp;temperature;humidity
52697;DHT22;38593;52.670;6.286;2022-07-25T00:01:25;23.40;94.80
52697;DHT22;38593;52.670;6.286;2022-07-25T00:03:50;23.40;94.80
52697;DHT22;38593;52.670;6.286;2022-07-25T00:06:16;23.30;95.10
52697;DHT22;38593;52.670;6.286;2022-07-25T00:08:41;23.30;95.00
52697;DHT22;38593;52.670;6.286;2022-07-25T00:11:07;23.30;95.10
52697;DHT22;38593;52.670;6.286;2022-07-25T00:13:32;23.20;95.20
52697;DHT22;38593;52.670;6.286;2022-07-25T00:15:58;23.20;95.10
52697;DHT22;38593;52.670;6.286;2022-07-25T00:18:23;23.20;95.20
52697;DHT22;38593;52.670;6.286;2022-07-25T00:20:49;23.20;95.20
52697;DHT22;38593;52.670;6.286;2022-07-25T00:23:14;23.20;95.30
52697;DHT22;38593;52.670;6.286;2022-07-25T00:25:40;23.10;95.30
52697;DHT22;38593;52.670;6.286;2022-07-25T00:28:05;23.10;95.40
52697;DHT22;38593;52.670;6.286;2022-07-25T00:30:31;23.10;95.40
52697;DHT22;38593;52.670;6.286;2022-07-25T00:32:56;23.10;95.50
52697;DHT22;38593;52.670;6.286;2022-07-25T00:35:22;23.10;95.40
52697;DHT22;38593;52.670;6.286;2022-07-25T00:37:47;23.10;95.50
52697;DHT22;38593;52.670;6.286;2022-07-25T00:40:13;23.10;95.50
52697;DHT22;38593;52.670;6.286;2022-07-25T00:42:38;23.00;95.60
52697;DHT22;38593;52.670;6.286;2022-07-25T00:45:04;23.00;95.60
52697;DHT22;38593;52.670;6.286;2022-07-25T00:47:29;23.00;95.70
52697;DHT22;38593;52.670;6.286;2022-07-25T00:49:55;23.00;95.60
52697;DHT22;38593;52.670;6.286;2022-07-25T00:52:21;23.00;95.60
52697;DHT22;38593;52.670;6.286;2022-07-25T00:54:48;22.90;95.70
52697;DHT22;38593;52.670;6.286;2022-07-25T00:57:13;22.90;95.90
52697;DHT22;38593;52.670;6.286;2022-07-25T00:59:39;22.90;95.90
52697;DHT22;38593;52.670;6.286;2022-07-25T01:02:04;22.90;95.80
52697;DHT22;38593;52.670;6.286;2022-07-25T01:04:30;22.80;95.90
52697;DHT22;38593;52.670;6.286;2022-07-25T01:06:55;22.80;96.00
52697;DHT22;38593;52.670;6.286;2022-07-25T01:09:21;22.80;96.10
52697;DHT22;38593;52.670;6.286;2022-07-25T01:11:46;22.80;96.00
52697;DHT22;38593;52.670;6.286;2022-07-25T01:14:12;22.80;96.10
52697;DHT22;38593;52.670;6.286;2022-07-25T01:16:37;22.70;96.20
52697;DHT22;38593;52.670;6.286;2022-07-25T01:19:05;22.60;96.30
52697;DHT22;38593;52.670;6.286;2022-07-25T01:21:31;22.60;96.30
52697;DHT22;38593;52.670;6.286;2022-07-25T01:23:57;22.60;96.40
52697;DHT22;38593;52.670;6.286;2022-07-25T01:26:22;22.60;96.40
52697;DHT22;38593;52.670;6.286;2022-07-25T01:28:48;22.60;96.50
52697;DHT22;38593;52.670;6.286;2022-07-25T01:31:13;22.60;96.40
52697;DHT22;38593;52.670;6.286;2022-07-25T01:33:39;22.50;96.70
52697;DHT22;38593;52.670;6.286;2022-07-25T01:36:04;22.50;96.60
52697;DHT22;38593;52.670;6.286;2022-07-25T01:38:30;22.50;96.70
52697;DHT22;38593;52.670;6.286;2022-07-25T01:40:55;22.50;96.70
52697;DHT22;38593;52.670;6.286;2022-07-25T01:43:21;22.50;96.60
52697;DHT22;38593;52.670;6.286;2022-07-25T01:45:46;22.50;96.70
52697;DHT22;38593;52.670;6.286;2022-07-25T01:48:12;22.50;96.60
52697;DHT22;38593;52.670;6.286;2022-07-25T01:50:37;22.50;96.60
52697;DHT22;38593;52.670;6.286;2022-07-25T01:53:03;22.50;96.70
52697;DHT22;38593;52.670;6.286;2022-07-25T01:55:29;22.40;96.60
52697;DHT22;38593;52.670;6.286;2022-07-25T01:57:55;22.50;96.60
52697;DHT22;38593;52.670;6.286;2022-07-25T02:00:20;22.40;96.70
52697;DHT22;38593;52.670;6.286;2022-07-25T02:02:46;22.40;96.60
52697;DHT22;38593;52.670;6.286;2022-07-25T02:05:12;22.40;96.70
52697;DHT22;38593;52.670;6.286;2022-07-25T02:07:38;22.40;96.60
52697;DHT22;38593;52.670;6.286;2022-07-25T02:10:04;22.40;96.70
52697;DHT22;38593;52.670;6.286;2022-07-25T02:12:30;22.40;96.80
52697;DHT22;38593;52.670;6.286;2022-07-25T02:14:55;22.30;96.80
52697;DHT22;38593;52.670;6.286;2022-07-25T02:17:21;22.30;96.90
52697;DHT22;38593;52.670;6.286;2022-07-25T02:19:46;22.30;96.80
52697;DHT22;38593;52.670;6.286;2022-07-25T02:22:12;22.30;97.00
52697;DHT22;38593;52.670;6.286;2022-07-25T02:24:37;22.30;96.90
52697;DHT22;38593;52.670;6.286;2022-07-25T02:27:03;22.30;97.00
52697;DHT22;38593;52.670;6.286;2022-07-25T02:29:29;22.20;96.90
52697;DHT22;38593;52.670;6.286;2022-07-25T02:31:55;22.20;97.30
52697;DHT22;38593;52.670;6.286;2022-07-25T02:34:20;22.20;97.30
52697;DHT22;38593;52.670;6.286;2022-07-25T02:36:46;22.10;97.00
52697;DHT22;38593;52.670;6.286;2022-07-25T02:39:11;22.10;97.20
52697;DHT22;38593;52.670;6.286;2022-07-25T02:41:37;22.10;97.20
52697;DHT22;38593;52.670;6.286;2022-07-25T02:44:03;22.10;97.20
52697;DHT22;38593;52.670;6.286;2022-07-25T02:46:29;22.10;97.20
52697;DHT22;38593;52.670;6.286;2022-07-25T02:48:54;22.10;97.10
52697;DHT22;38593;52.670;6.286;2022-07-25T02:51:20;22.00;97.20
52697;DHT22;38593;52.670;6.286;2022-07-25T02:53:45;22.00;97.20
52697;DHT22;38593;52.670;6.286;2022-07-25T02:56:11;22.00;97.30
52697;DHT22;38593;52.670;6.286;2022-07-25T02:58:36;22.00;97.40
52697;DHT22;38593;52.670;6.286;2022-07-25T03:01:02;21.90;97.50
52697;DHT22;38593;52.670;6.286;2022-07-25T03:03:27;21.80;97.60
52697;DHT22;38593;52.670;6.286;2022-07-25T03:05:53;21.80;97.60
52697;DHT22;38593;52.670;6.286;2022-07-25T03:08:18;21.70;97.70
52697;DHT22;38593;52.670;6.286;2022-07-25T03:10:44;21.70;97.80
52697;DHT22;38593;52.670;6.286;2022-07-25T03:13:09;21.70;97.70
52697;DHT22;38593;52.670;6.286;2022-07-25T03:15:35;21.70;97.80
52697;DHT22;38593;52.670;6.286;2022-07-25T03:18:00;21.70;97.80
52697;DHT22;38593;52.670;6.286;2022-07-25T03:20:26;21.70;97.80
52697;DHT22;38593;52.670;6.286;2022-07-25T03:22:51;21.70;97.90
52697;DHT22;38593;52.670;6.286;2022-07-25T03:25:17;21.70;97.90
52697;DHT22;38593;52.670;6.286;2022-07-25T03:27:42;21.70;97.90
52697;DHT22;38593;52.670;6.286;2022-07-25T03:30:08;21.70;98.10
52697;DHT22;38593;52.670;6.286;2022-07-25T03:32:33;21.70;98.00
52697;DHT22;38593;52.670;6.286;2022-07-25T03:34:59;21.60;98.10
52697;DHT22;38593;52.670;6.286;2022-07-25T03:37:24;21.60;98.10
52697;DHT22;38593;52.670;6.286;2022-07-25T03:39:50;21.60;98.30
52697;DHT22;38593;52.670;6.286;2022-07-25T03:42:15;21.60;98.20
52697;DHT22;38593;52.670;6.286;2022-07-25T03:44:41;21.50;98.30
52697;DHT22;38593;52.670;6.286;2022-07-25T03:47:06;21.50;98.40
52697;DHT22;38593;52.670;6.286;2022-07-25T03:49:32;21.50;98.40
52697;DHT22;38593;52.670;6.286;2022-07-25T03:51:57;21.50;98.50
52697;DHT22;38593;52.670;6.286;2022-07-25T03:54:23;21.40;98.60
52697;DHT22;38593;52.670;6.286;2022-07-25T03:56:49;21.40;98.60
52697;DHT22;38593;52.670;6.286;2022-07-25T03:59:16;21.30;98.80
52697;DHT22;38593;52.670;6.286;2022-07-25T04:01:42;21.30;98.70
52697;DHT22;38593;52.670;6.286;2022-07-25T04:04:08;21.30;99.00
52697;DHT22;38593;52.670;6.286;2022-07-25T04:06:34;21.30;99.00
52697;DHT22;38593;52.670;6.286;2022-07-25T04:08:59;21.30;99.00
52697;DHT22;38593;52.670;6.286;2022-07-25T04:11:25;21.30;99.00
52697;DHT22;38593;52.670;6.286;2022-07-25T04:13:52;21.20;99.10
52697;DHT22;38593;52.670;6.286;2022-07-25T04:16:18;21.20;99.20
52697;DHT22;38593;52.670;6.286;2022-07-25T04:18:44;21.10;99.30
52697;DHT22;38593;52.670;6.286;2022-07-25T04:21:09;21.20;99.50
52697;DHT22;38593;52.670;6.286;2022-07-25T04:23:35;21.10;99.60
52697;DHT22;38593;52.670;6.286;2022-07-25T04:26:00;21.20;99.60
52697;DHT22;38593;52.670;6.286;2022-07-25T04:28:26;21.20;99.70
52697;DHT22;38593;52.670;6.286;2022-07-25T04:30:52;21.20;99.70
52697;DHT22;38593;52.670;6.286;2022-07-25T04:33:17;21.20;99.70
52697;DHT22;38593;52.670;6.286;2022-07-25T04:35:43;21.20;99.60
52697;DHT22;38593;52.670;6.286;2022-07-25T04:38:08;21.20;99.70
52697;DHT22;38593;52.670;6.286;2022-07-25T04:40:34;21.30;99.70
52697;DHT22;38593;52.670;6.286;2022-07-25T04:42:59;21.30;99.80
52697;DHT22;38593;52.670;6.286;2022-07-25T04:45:25;21.30;99.70
52697;DHT22;38593;52.670;6.286;2022-07-25T04:47:51;21.30;99.70
52697;DHT22;38593;52.670;6.286;2022-07-25T04:50:17;21.40;99.70
52697;DHT22;38593;52.670;6.286;2022-07-25T04:52:42;21.40;99.70
52697;DHT22;38593;52.670;6.286;2022-07-25T04:55:08;21.40;99.70
52697;DHT22;38593;52.670;6.286;2022-07-25T04:57:34;21.50;99.70
52697;DHT22;38593;52.670;6.286;2022-07-25T05:00:00;21.40;99.50
52697;DHT22;38593;52.670;6.286;2022-07-25T05:02:25;21.50;99.50
52697;DHT22;38593;52.670;6.286;2022-07-25T05:04:51;21.50;99.40
52697;DHT22;38593;52.670;6.286;2022-07-25T05:07:17;21.50;99.60
52697;DHT22;38593;52.670;6.286;2022-07-25T05:09:42;21.50;99.50
52697;DHT22;38593;52.670;6.286;2022-07-25T05:12:08;21.60;99.60
52697;DHT22;38593;52.670;6.286;2022-07-25T05:14:33;21.60;99.60
52697;DHT22;38593;52.670;6.286;2022-07-25T05:16:59;21.70;99.60
52697;DHT22;38593;52.670;6.286;2022-07-25T05:19:24;21.60;99.50
52697;DHT22;38593;52.670;6.286;2022-07-25T05:21:50;21.70;99.60
52697;DHT22;38593;52.670;6.286;2022-07-25T05:24:16;21.70;99.60
52697;DHT22;38593;52.670;6.286;2022-07-25T05:26:41;21.70;99.60
52697;DHT22;38593;52.670;6.286;2022-07-25T05:29:07;21.70;99.50
52697;DHT22;38593;52.670;6.286;2022-07-25T05:31:32;21.70;99.60
52697;DHT22;38593;52.670;6.286;2022-07-25T05:33:58;21.80;99.70
52697;DHT22;38593;52.670;6.286;2022-07-25T05:36:23;21.80;99.70
52697;DHT22;38593;52.670;6.286;2022-07-25T05:38:49;21.80;99.80
52697;DHT22;38593;52.670;6.286;2022-07-25T05:41:14;21.80;99.80
52697;DHT22;38593;52.670;6.286;2022-07-25T05:43:40;21.90;99.80
52697;DHT22;38593;52.670;6.286;2022-07-25T05:46:10;21.90;99.90
52697;DHT22;38593;52.670;6.286;2022-07-25T05:48:36;21.90;99.90
52697;DHT22;38593;52.670;6.286;2022-07-25T05:51:01;22.00;99.90
52697;DHT22;38593;52.670;6.286;2022-07-25T05:53:27;22.00;99.90
52697;DHT22;38593;52.670;6.286;2022-07-25T05:55:52;22.10;99.90
52697;DHT22;38593;52.670;6.286;2022-07-25T05:58:18;22.10;99.90
52697;DHT22;38593;52.670;6.286;2022-07-25T06:00:43;22.20;99.90
52697;DHT22;38593;52.670;6.286;2022-07-25T06:03:09;22.20;99.90
52697;DHT22;38593;52.670;6.286;2022-07-25T06:05:34;22.20;99.90
52697;DHT22;38593;52.670;6.286;2022-07-25T06:08:00;22.30;99.90
52697;DHT22;38593;52.670;6.286;2022-07-25T06:10:25;22.30;99.90
52697;DHT22;38593;52.670;6.286;2022-07-25T06:12:51;22.40;99.90
52697;DHT22;38593;52.670;6.286;2022-07-25T06:15:16;22.40;99.90
52697;DHT22;38593;52.670;6.286;2022-07-25T06:17:42;22.50;99.90
52697;DHT22;38593;52.670;6.286;2022-07-25T06:20:08;22.50;99.90
52697;DHT22;38593;52.670;6.286;2022-07-25T06:22:33;22.60;99.90
52697;DHT22;38593;52.670;6.286;2022-07-25T06:25:00;22.60;99.90
52697;DHT22;38593;52.670;6.286;2022-07-25T06:27:26;22.70;99.70
52697;DHT22;38593;52.670;6.286;2022-07-25T06:29:51;22.80;99.60
52697;DHT22;38593;52.670;6.286;2022-07-25T06:32:17;22.80;99.50
52697;DHT22;38593;52.670;6.286;2022-07-25T06:34:42;22.90;99.10
52697;DHT22;38593;52.670;6.286;2022-07-25T06:37:08;23.00;99.20
52697;DHT22;38593;52.670;6.286;2022-07-25T06:39:33;23.10;99.00
52697;DHT22;38593;52.670;6.286;2022-07-25T06:41:59;23.20;99.30
52697;DHT22;38593;52.670;6.286;2022-07-25T06:44:25;23.30;99.30
52697;DHT22;38593;52.670;6.286;2022-07-25T06:46:50;23.40;99.00
52697;DHT22;38593;52.670;6.286;2022-07-25T06:49:16;23.40;99.00
52697;DHT22;38593;52.670;6.286;2022-07-25T06:51:41;23.50;98.90
52697;DHT22;38593;52.670;6.286;2022-07-25T06:54:07;23.60;98.60
52697;DHT22;38593;52.670;6.286;2022-07-25T06:56:32;23.60;98.50
52697;DHT22;38593;52.670;6.286;2022-07-25T06:58:59;23.60;98.50
52697;DHT22;38593;52.670;6.286;2022-07-25T07:01:24;23.60;98.50
52697;DHT22;38593;52.670;6.286;2022-07-25T07:03:50;23.60;98.60
52697;DHT22;38593;52.670;6.286;2022-07-25T07:06:15;23.60;98.50
52697;DHT22;38593;52.670;6.286;2022-07-25T07:08:41;23.60;98.50
52697;DHT22;38593;52.670;6.286;2022-07-25T07:11:06;23.60;98.60
52697;DHT22;38593;52.670;6.286;2022-07-25T07:13:32;23.60;98.70
52697;DHT22;38593;52.670;6.286;2022-07-25T07:15:58;23.60;98.40
52697;DHT22;38593;52.670;6.286;2022-07-25T07:18:24;23.60;98.30
52697;DHT22;38593;52.670;6.286;2022-07-25T07:20:50;23.60;98.30
52697;DHT22;38593;52.670;6.286;2022-07-25T07:23:16;23.60;98.30
52697;DHT22;38593;52.670;6.286;2022-07-25T07:25:41;23.50;98.30
52697;DHT22;38593;52.670;6.286;2022-07-25T07:28:07;23.50;98.40
52697;DHT22;38593;52.670;6.286;2022-07-25T07:30:33;23.40;98.50
52697;DHT22;38593;52.670;6.286;2022-07-25T07:32:58;23.40;98.50
52697;DHT22;38593;52.670;6.286;2022-07-25T07:35:24;23.40;98.40
52697;DHT22;38593;52.670;6.286;2022-07-25T07:37:50;23.40;98.40
52697;DHT22;38593;52.670;6.286;2022-07-25T07:40:16;23.40;98.40
52697;DHT22;38593;52.670;6.286;2022-07-25T07:42:45;23.50;98.50
52697;DHT22;38593;52.670;6.286;2022-07-25T07:45:15;23.60;98.60
52697;DHT22;38593;52.670;6.286;2022-07-25T07:47:41;23.70;98.50
52697;DHT22;38593;52.670;6.286;2022-07-25T07:50:07;23.90;98.50
52697;DHT22;38593;52.670;6.286;2022-07-25T07:52:33;24.00;98.10
52697;DHT22;38593;52.670;6.286;2022-07-25T07:54:58;24.10;98.00
52697;DHT22;38593;52.670;6.286;2022-07-25T07:57:43;24.10;97.50
52697;DHT22;38593;52.670;6.286;2022-07-25T08:00:08;24.10;97.40
52697;DHT22;38593;52.670;6.286;2022-07-25T08:02:41;24.10;97.40
52697;DHT22;38593;52.670;6.286;2022-07-25T08:05:06;24.00;97.50
52697;DHT22;38593;52.670;6.286;2022-07-25T08:07:32;24.00;97.70
52697;DHT22;38593;52.670;6.286;2022-07-25T08:09:57;24.00;97.70
52697;DHT22;38593;52.670;6.286;2022-07-25T08:12:23;24.10;98.00
52697;DHT22;38593;52.670;6.286;2022-07-25T08:14:48;24.20;97.90
52697;DHT22;38593;52.670;6.286;2022-07-25T08:17:14;24.30;97.60
52697;DHT22;38593;52.670;6.286;2022-07-25T08:19:39;24.30;97.60
52697;DHT22;38593;52.670;6.286;2022-07-25T08:22:05;24.40;97.60
52697;DHT22;38593;52.670;6.286;2022-07-25T08:24:30;24.50;97.40
52697;DHT22;38593;52.670;6.286;2022-07-25T08:26:56;24.50;97.40
52697;DHT22;38593;52.670;6.286;2022-07-25T08:29:21;24.50;97.50
52697;DHT22;38593;52.670;6.286;2022-07-25T08:31:47;24.60;97.00
52697;DHT22;38593;52.670;6.286;2022-07-25T08:34:12;24.50;97.00
52697;DHT22;38593;52.670;6.286;2022-07-25T08:36:38;24.50;96.70
52697;DHT22;38593;52.670;6.286;2022-07-25T08:39:03;24.40;96.40
52697;DHT22;38593;52.670;6.286;2022-07-25T08:41:29;24.30;95.90
52697;DHT22;38593;52.670;6.286;2022-07-25T08:43:57;24.30;95.10
52697;DHT22;38593;52.670;6.286;2022-07-25T08:46:22;24.20;95.00
52697;DHT22;38593;52.670;6.286;2022-07-25T08:48:48;24.20;94.80
52697;DHT22;38593;52.670;6.286;2022-07-25T08:51:15;24.20;94.20
52697;DHT22;38593;52.670;6.286;2022-07-25T08:53:40;24.20;94.50
52697;DHT22;38593;52.670;6.286;2022-07-25T08:56:06;24.20;94.80
52697;DHT22;38593;52.670;6.286;2022-07-25T08:58:33;24.10;94.90
52697;DHT22;38593;52.670;6.286;2022-07-25T09:00:58;24.10;94.70
52697;DHT22;38593;52.670;6.286;2022-07-25T09:03:24;24.10;95.00
52697;DHT22;38593;52.670;6.286;2022-07-25T09:05:50;24.10;94.80
52697;DHT22;38593;52.670;6.286;2022-07-25T09:08:16;24.10;95.00
52697;DHT22;38593;52.670;6.286;2022-07-25T09:10:46;24.10;94.80
52697;DHT22;38593;52.670;6.286;2022-07-25T09:13:12;24.20;95.00
52697;DHT22;38593;52.670;6.286;2022-07-25T09:15:39;24.10;95.10
52697;DHT22;38593;52.670;6.286;2022-07-25T09:18:06;24.20;95.10
52697;DHT22;38593;52.670;6.286;2022-07-25T09:20:51;24.10;95.10
52697;DHT22;38593;52.670;6.286;2022-07-25T09:23:28;24.30;95.50
52697;DHT22;38593;52.670;6.286;2022-07-25T09:26:02;24.40;95.60
52697;DHT22;38593;52.670;6.286;2022-07-25T09:28:28;24.50;95.60
52697;DHT22;38593;52.670;6.286;2022-07-25T09:31:00;24.50;95.30
52697;DHT22;38593;52.670;6.286;2022-07-25T09:33:26;24.60;95.40
52697;DHT22;38593;52.670;6.286;2022-07-25T09:35:52;24.70;95.00
52697;DHT22;38593;52.670;6.286;2022-07-25T09:38:18;24.70;95.30
52697;DHT22;38593;52.670;6.286;2022-07-25T09:43:19;24.50;95.40
52697;DHT22;38593;52.670;6.286;2022-07-25T09:45:48;24.40;95.80
52697;DHT22;38593;52.670;6.286;2022-07-25T09:48:14;24.30;96.10
52697;DHT22;38593;52.670;6.286;2022-07-25T09:50:42;24.30;96.40
52697;DHT22;38593;52.670;6.286;2022-07-25T09:53:07;24.10;96.30
52697;DHT22;38593;52.670;6.286;2022-07-25T09:55:33;24.20;96.70
52697;DHT22;38593;52.670;6.286;2022-07-25T09:57:58;24.30;96.90
52697;DHT22;38593;52.670;6.286;2022-07-25T10:00:25;24.50;97.00
52697;DHT22;38593;52.670;6.286;2022-07-25T10:07:46;25.00;96.80
52697;DHT22;38593;52.670;6.286;2022-07-25T10:10:19;25.00;96.80
52697;DHT22;38593;52.670;6.286;2022-07-25T10:12:56;25.10;96.90
52697;DHT22;38593;52.670;6.286;2022-07-25T10:15:22;25.10;96.70
52697;DHT22;38593;52.670;6.286;2022-07-25T10:17:47;25.10;96.70
52697;DHT22;38593;52.670;6.286;2022-07-25T10:20:14;25.10;96.60
52697;DHT22;38593;52.670;6.286;2022-07-25T10:22:41;25.00;96.80
52697;DHT22;38593;52.670;6.286;2022-07-25T10:25:11;25.00;96.90
52697;DHT22;38593;52.670;6.286;2022-07-25T10:27:45;24.90;96.70
52697;DHT22;38593;52.670;6.286;2022-07-25T10:30:46;24.80;96.70
52697;DHT22;38593;52.670;6.286;2022-07-25T10:33:11;24.60;97.10
52697;DHT22;38593;52.670;6.286;2022-07-25T10:35:37;24.50;97.90
52697;DHT22;38593;52.670;6.286;2022-07-25T10:38:03;24.30;98.60
52697;DHT22;38593;52.670;6.286;2022-07-25T10:40:40;24.30;99.30
52697;DHT22;38593;52.670;6.286;2022-07-25T10:43:06;24.10;99.60
52697;DHT22;38593;52.670;6.286;2022-07-25T10:45:36;24.10;99.80
52697;DHT22;38593;52.670;6.286;2022-07-25T10:48:05;23.90;99.90
52697;DHT22;38593;52.670;6.286;2022-07-25T10:50:31;23.90;99.90
52697;DHT22;38593;52.670;6.286;2022-07-25T10:52:57;23.90;99.90
52697;DHT22;38593;52.670;6.286;2022-07-25T10:55:24;23.90;99.90
52697;DHT22;38593;52.670;6.286;2022-07-25T10:58:01;23.90;99.90
52697;DHT22;38593;52.670;6.286;2022-07-25T11:00:28;23.80;99.90
52697;DHT22;38593;52.670;6.286;2022-07-25T11:02:56;23.80;99.90
52697;DHT22;38593;52.670;6.286;2022-07-25T11:05:22;23.90;99.90
52697;DHT22;38593;52.670;6.286;2022-07-25T11:07:48;23.90;99.90
52697;DHT22;38593;52.670;6.286;2022-07-25T11:10:23;24.00;99.90
52697;DHT22;38593;52.670;6.286;2022-07-25T11:12:49;24.00;99.90
52697;DHT22;38593;52.670;6.286;2022-07-25T11:15:14;24.00;99.90
52697;DHT22;38593;52.670;6.286;2022-07-25T11:17:47;24.10;99.10
52697;DHT22;38593;52.670;6.286;2022-07-25T11:20:15;24.00;98.80
52697;DHT22;38593;52.670;6.286;2022-07-25T11:22:40;24.00;98.80
52697;DHT22;38593;52.670;6.286;2022-07-25T11:25:10;24.00;98.70
52697;DHT22;38593;52.670;6.286;2022-07-25T11:27:36;24.00;98.80
52697;DHT22;38593;52.670;6.286;2022-07-25T11:35:07;24.10;99.00
52697;DHT22;38593;52.670;6.286;2022-07-25T11:37:34;24.10;98.70
52697;DHT22;38593;52.670;6.286;2022-07-25T11:40:01;24.10;98.70
52697;DHT22;38593;52.670;6.286;2022-07-25T11:42:37;24.20;98.60
52697;DHT22;38593;52.670;6.286;2022-07-25T11:45:14;24.10;98.30
52697;DHT22;38593;52.670;6.286;2022-07-25T11:47:39;24.30;98.60
52697;DHT22;38593;52.670;6.286;2022-07-25T11:50:05;24.30;98.70
52697;DHT22;38593;52.670;6.286;2022-07-25T11:52:32;24.20;98.50
52697;DHT22;38593;52.670;6.286;2022-07-25T11:54:59;24.10;98.60
52697;DHT22;38593;52.670;6.286;2022-07-25T11:57:28;24.00;98.90
52697;DHT22;38593;52.670;6.286;2022-07-25T11:59:55;23.90;98.70
52697;DHT22;38593;52.670;6.286;2022-07-25T12:02:21;23.80;98.70
52697;DHT22;38593;52.670;6.286;2022-07-25T12:04:57;23.80;98.50
52697;DHT22;38593;52.670;6.286;2022-07-25T12:07:39;23.70;98.10
52697;DHT22;38593;52.670;6.286;2022-07-25T12:10:06;23.70;97.50
52697;DHT22;38593;52.670;6.286;2022-07-25T12:15:08;24.00;96.60
52697;DHT22;38593;52.670;6.286;2022-07-25T12:17:33;24.00;96.40
52697;DHT22;38593;52.670;6.286;2022-07-25T12:19:59;24.00;96.50
52697;DHT22;38593;52.670;6.286;2022-07-25T12:22:24;24.10;96.90
52697;DHT22;38593;52.670;6.286;2022-07-25T12:24:50;24.20;97.00
52697;DHT22;38593;52.670;6.286;2022-07-25T12:27:15;24.30;96.70
52697;DHT22;38593;52.670;6.286;2022-07-25T12:29:41;24.30;97.00
52697;DHT22;38593;52.670;6.286;2022-07-25T12:32:07;24.30;97.00
52697;DHT22;38593;52.670;6.286;2022-07-25T12:34:32;24.40;97.00
52697;DHT22;38593;52.670;6.286;2022-07-25T12:36:58;24.30;96.40
52697;DHT22;38593;52.670;6.286;2022-07-25T12:39:23;24.30;96.00
52697;DHT22;38593;52.670;6.286;2022-07-25T12:41:49;24.20;96.10
52697;DHT22;38593;52.670;6.286;2022-07-25T12:44:14;24.10;95.50
52697;DHT22;38593;52.670;6.286;2022-07-25T12:46:40;24.10;95.50
52697;DHT22;38593;52.670;6.286;2022-07-25T12:49:06;24.00;95.50
52697;DHT22;38593;52.670;6.286;2022-07-25T12:51:31;23.90;95.30
52697;DHT22;38593;52.670;6.286;2022-07-25T12:53:57;23.90;95.30
52697;DHT22;38593;52.670;6.286;2022-07-25T12:56:22;23.90;95.70
52697;DHT22;38593;52.670;6.286;2022-07-25T12:58:48;23.80;96.10
52697;DHT22;38593;52.670;6.286;2022-07-25T13:01:14;23.80;96.20
52697;DHT22;38593;52.670;6.286;2022-07-25T13:03:40;23.70;96.50
52697;DHT22;38593;52.670;6.286;2022-07-25T13:06:05;23.60;96.60
52697;DHT22;38593;52.670;6.286;2022-07-25T13:08:31;23.40;96.60
52697;DHT22;38593;52.670;6.286;2022-07-25T13:10:57;23.30;96.80
52697;DHT22;38593;52.670;6.286;2022-07-25T13:13:22;23.30;96.90
52697;DHT22;38593;52.670;6.286;2022-07-25T13:15:49;23.10;97.00
52697;DHT22;38593;52.670;6.286;2022-07-25T13:18:14;23.10;97.10
52697;DHT22;38593;52.670;6.286;2022-07-25T13:20:40;23.00;97.10
52697;DHT22;38593;52.670;6.286;2022-07-25T13:23:05;22.90;97.20
52697;DHT22;38593;52.670;6.286;2022-07-25T13:25:31;22.90;97.40
52697;DHT22;38593;52.670;6.286;2022-07-25T13:27:58;22.80;97.30
52697;DHT22;38593;52.670;6.286;2022-07-25T13:30:23;22.70;97.50
52697;DHT22;38593;52.670;6.286;2022-07-25T13:32:49;22.70;97.70
52697;DHT22;38593;52.670;6.286;2022-07-25T13:35:14;22.70;98.00
52697;DHT22;38593;52.670;6.286;2022-07-25T13:37:40;22.60;97.70
52697;DHT22;38593;52.670;6.286;2022-07-25T13:40:05;22.70;97.70
52697;DHT22;38593;52.670;6.286;2022-07-25T13:42:31;22.80;97.80
52697;DHT22;38593;52.670;6.286;2022-07-25T13:44:57;23.00;97.70
52697;DHT22;38593;52.670;6.286;2022-07-25T13:47:22;23.10;97.80
52697;DHT22;38593;52.670;6.286;2022-07-25T13:49:48;23.30;97.50
52697;DHT22;38593;52.670;6.286;2022-07-25T13:52:14;23.40;97.20
52697;DHT22;38593;52.670;6.286;2022-07-25T13:54:39;23.50;97.20
52697;DHT22;38593;52.670;6.286;2022-07-25T13:57:05;23.60;97.40
52697;DHT22;38593;52.670;6.286;2022-07-25T13:59:30;23.60;97.20
52697;DHT22;38593;52.670;6.286;2022-07-25T14:01:56;23.50;96.80
52697;DHT22;38593;52.670;6.286;2022-07-25T14:04:21;23.60;97.20
52697;DHT22;38593;52.670;6.286;2022-07-25T14:06:47;23.40;96.80
52697;DHT22;38593;52.670;6.286;2022-07-25T14:09:17;23.40;97.20
52697;DHT22;38593;52.670;6.286;2022-07-25T14:11:43;23.20;97.10
52697;DHT22;38593;52.670;6.286;2022-07-25T14:14:08;23.30;97.20
52697;DHT22;38593;52.670;6.286;2022-07-25T14:16:34;23.50;97.20
52697;DHT22;38593;52.670;6.286;2022-07-25T14:18:59;23.80;96.80
52697;DHT22;38593;52.670;6.286;2022-07-25T14:21:25;23.90;96.80
52697;DHT22;38593;52.670;6.286;2022-07-25T14:23:51;24.20;96.50
52697;DHT22;38593;52.670;6.286;2022-07-25T14:26:16;24.30;95.70
52697;DHT22;38593;52.670;6.286;2022-07-25T14:28:42;24.30;95.30
52697;DHT22;38593;52.670;6.286;2022-07-25T14:31:07;24.40;94.20
52697;DHT22;38593;52.670;6.286;2022-07-25T14:33:33;24.70;94.40
52697;DHT22;38593;52.670;6.286;2022-07-25T14:36:05;24.80;92.90
52697;DHT22;38593;52.670;6.286;2022-07-25T14:38:30;25.00;92.40
52697;DHT22;38593;52.670;6.286;2022-07-25T14:40:56;25.10;91.40
52697;DHT22;38593;52.670;6.286;2022-07-25T14:43:21;25.20;90.50
52697;DHT22;38593;52.670;6.286;2022-07-25T14:45:47;25.20;90.10
52697;DHT22;38593;52.670;6.286;2022-07-25T14:48:12;25.20;89.40
52697;DHT22;38593;52.670;6.286;2022-07-25T14:50:38;25.30;90.10
52697;DHT22;38593;52.670;6.286;2022-07-25T14:53:04;25.20;87.70
52697;DHT22;38593;52.670;6.286;2022-07-25T14:55:29;25.20;86.30
52697;DHT22;38593;52.670;6.286;2022-07-25T14:57:55;25.10;87.60
52697;DHT22;38593;52.670;6.286;2022-07-25T15:00:22;25.00;88.20
52697;DHT22;38593;52.670;6.286;2022-07-25T15:02:47;24.80;89.80
52697;DHT22;38593;52.670;6.286;2022-07-25T15:05:13;24.60;89.00
52697;DHT22;38593;52.670;6.286;2022-07-25T15:07:38;24.50;89.50
52697;DHT22;38593;52.670;6.286;2022-07-25T15:10:04;24.40;89.90
52697;DHT22;38593;52.670;6.286;2022-07-25T15:12:30;24.20;90.20
52697;DHT22;38593;52.670;6.286;2022-07-25T15:14:55;24.20;90.70
52697;DHT22;38593;52.670;6.286;2022-07-25T15:17:21;24.00;91.00
52697;DHT22;38593;52.670;6.286;2022-07-25T15:19:46;24.00;91.60
52697;DHT22;38593;52.670;6.286;2022-07-25T15:22:13;23.90;91.60
52697;DHT22;38593;52.670;6.286;2022-07-25T15:24:38;23.80;91.50
52697;DHT22;38593;52.670;6.286;2022-07-25T15:27:04;23.80;91.50
52697;DHT22;38593;52.670;6.286;2022-07-25T15:29:30;23.70;91.50
52697;DHT22;38593;52.670;6.286;2022-07-25T15:31:55;23.60;91.50
52697;DHT22;38593;52.670;6.286;2022-07-25T15:34:21;23.60;91.50
52697;DHT22;38593;52.670;6.286;2022-07-25T15:36:46;23.60;91.70
52697;DHT22;38593;52.670;6.286;2022-07-25T15:39:12;23.70;91.80